Sutherland Springs, Texas
Current Conditions -  °F | °C
As of 2:58 PM on Thursday 23 Oct 2014 (Local Time) from KRND Reporting Station
Few Clouds Few Clouds  
Wind Chill: 28°   Ceiling: Unl
Heat Index: 28°   Visibility: 10mi
Dew Point: 15°   Wind: 6mph
Humidity: 44%   Direction: 130°SE
Pressure: 30.08"   Gusts: NA
Location:  29.27°N, 98.06°W
Report Text: KRND 231958Z AUTO 13005KT 10SM FEW100 28/15 A3008 RMK AO2 SLP179 T02790145
Loading
Personal Weather Stations






























Interactive Weather Map
Tropical Storm Tracking
New forecast layout! Learn more

10-Day Weather Forecast

Advertisements
Track Severe Weather on mobile